sensor_id;sensor_type;location;lat;lon;timestamp;P1;durP1;ratioP1;P2;durP2;ratioP2
487;SDS011;16586;48.976;9.584;2022-10-16T00:01:29;1.30;;;1.00;;
487;SDS011;16586;48.976;9.584;2022-10-16T00:03:57;1.80;;;1.30;;
487;SDS011;16586;48.976;9.584;2022-10-16T00:06:25;2.40;;;1.40;;
487;SDS011;16586;48.976;9.584;2022-10-16T00:08:52;2.17;;;1.30;;
487;SDS011;16586;48.976;9.584;2022-10-16T00:11:21;2.20;;;1.10;;
487;SDS011;16586;48.976;9.584;2022-10-16T00:13:50;1.70;;;1.00;;
487;SDS011;16586;48.976;9.584;2022-10-16T00:16:20;1.60;;;0.80;;
487;SDS011;16586;48.976;9.584;2022-10-16T00:18:47;1.50;;;0.80;;
487;SDS011;16586;48.976;9.584;2022-10-16T00:21:14;1.10;;;0.80;;
487;SDS011;16586;48.976;9.584;2022-10-16T00:23:42;1.20;;;0.70;;
487;SDS011;16586;48.976;9.584;2022-10-16T00:26:12;1.30;;;0.70;;
487;SDS011;16586;48.976;9.584;2022-10-16T00:28:42;1.07;;;0.70;;
487;SDS011;16586;48.976;9.584;2022-10-16T00:31:11;3.00;;;1.20;;
487;SDS011;16586;48.976;9.584;2022-10-16T00:33:39;1.10;;;0.90;;
487;SDS011;16586;48.976;9.584;2022-10-16T00:36:07;1.40;;;0.80;;
487;SDS011;16586;48.976;9.584;2022-10-16T00:38:36;2.00;;;0.90;;
487;SDS011;16586;48.976;9.584;2022-10-16T00:41:03;1.80;;;0.90;;
487;SDS011;16586;48.976;9.584;2022-10-16T00:43:35;1.00;;;0.70;;
487;SDS011;16586;48.976;9.584;2022-10-16T00:46:07;1.10;;;0.60;;
487;SDS011;16586;48.976;9.584;2022-10-16T00:48:38;1.10;;;0.80;;
487;SDS011;16586;48.976;9.584;2022-10-16T00:51:05;1.27;;;0.80;;
487;SDS011;16586;48.976;9.584;2022-10-16T00:53:33;1.60;;;0.80;;
487;SDS011;16586;48.976;9.584;2022-10-16T00:56:01;1.30;;;0.80;;
487;SDS011;16586;48.976;9.584;2022-10-16T00:58:29;1.20;;;0.70;;
487;SDS011;16586;48.976;9.584;2022-10-16T01:00:56;1.00;;;0.60;;
487;SDS011;16586;48.976;9.584;2022-10-16T01:03:25;1.00;;;0.60;;
487;SDS011;16586;48.976;9.584;2022-10-16T01:06:00;1.50;;;0.70;;
487;SDS011;16586;48.976;9.584;2022-10-16T01:08:53;1.33;;;0.50;;
487;SDS011;16586;48.976;9.584;2022-10-16T01:11:38;1.05;;;0.70;;
487;SDS011;16586;48.976;9.584;2022-10-16T01:14:12;1.00;;;0.70;;
487;SDS011;16586;48.976;9.584;2022-10-16T01:16:46;1.10;;;0.60;;
487;SDS011;16586;48.976;9.584;2022-10-16T01:19:25;1.30;;;0.70;;
487;SDS011;16586;48.976;9.584;2022-10-16T01:22:01;1.00;;;0.60;;
487;SDS011;16586;48.976;9.584;2022-10-16T01:24:31;1.10;;;0.60;;
487;SDS011;16586;48.976;9.584;2022-10-16T01:27:07;1.70;;;0.60;;
487;SDS011;16586;48.976;9.584;2022-10-16T01:29:39;1.00;;;0.60;;
487;SDS011;16586;48.976;9.584;2022-10-16T01:32:11;1.00;;;0.52;;
487;SDS011;16586;48.976;9.584;2022-10-16T01:34:45;1.50;;;0.70;;
487;SDS011;16586;48.976;9.584;2022-10-16T01:37:18;0.93;;;0.50;;
487;SDS011;16586;48.976;9.584;2022-10-16T01:39:53;0.90;;;0.50;;
487;SDS011;16586;48.976;9.584;2022-10-16T01:42:26;1.25;;;0.70;;
487;SDS011;16586;48.976;9.584;2022-10-16T01:44:58;3.40;;;0.60;;
487;SDS011;16586;48.976;9.584;2022-10-16T01:47:26;1.00;;;0.60;;
487;SDS011;16586;48.976;9.584;2022-10-16T01:49:56;1.60;;;0.63;;
487;SDS011;16586;48.976;9.584;2022-10-16T01:52:25;1.40;;;0.85;;
487;SDS011;16586;48.976;9.584;2022-10-16T01:54:54;0.90;;;0.60;;
487;SDS011;16586;48.976;9.584;2022-10-16T01:57:23;1.92;;;0.60;;
487;SDS011;16586;48.976;9.584;2022-10-16T01:59:54;1.10;;;0.50;;
487;SDS011;16586;48.976;9.584;2022-10-16T02:02:25;1.30;;;0.50;;
487;SDS011;16586;48.976;9.584;2022-10-16T02:04:57;1.10;;;0.50;;
487;SDS011;16586;48.976;9.584;2022-10-16T02:07:27;1.00;;;0.70;;
487;SDS011;16586;48.976;9.584;2022-10-16T02:09:54;1.50;;;0.60;;
487;SDS011;16586;48.976;9.584;2022-10-16T02:12:23;0.90;;;0.50;;
487;SDS011;16586;48.976;9.584;2022-10-16T02:14:54;1.10;;;0.70;;
487;SDS011;16586;48.976;9.584;2022-10-16T02:17:22;1.30;;;0.70;;
487;SDS011;16586;48.976;9.584;2022-10-16T02:19:51;1.80;;;0.70;;
487;SDS011;16586;48.976;9.584;2022-10-16T02:22:21;1.10;;;0.60;;
487;SDS011;16586;48.976;9.584;2022-10-16T02:24:51;0.90;;;0.60;;
487;SDS011;16586;48.976;9.584;2022-10-16T02:27:23;1.20;;;0.50;;
487;SDS011;16586;48.976;9.584;2022-10-16T02:29:58;0.80;;;0.40;;
487;SDS011;16586;48.976;9.584;2022-10-16T02:32:33;1.10;;;0.50;;
487;SDS011;16586;48.976;9.584;2022-10-16T02:35:01;1.10;;;0.60;;
487;SDS011;16586;48.976;9.584;2022-10-16T02:37:30;1.50;;;0.50;;
487;SDS011;16586;48.976;9.584;2022-10-16T02:39:58;1.10;;;0.60;;
487;SDS011;16586;48.976;9.584;2022-10-16T02:42:31;1.20;;;0.80;;
487;SDS011;16586;48.976;9.584;2022-10-16T02:44:59;1.00;;;0.70;;
487;SDS011;16586;48.976;9.584;2022-10-16T02:47:26;1.20;;;0.70;;
487;SDS011;16586;48.976;9.584;2022-10-16T02:49:53;1.20;;;0.70;;
487;SDS011;16586;48.976;9.584;2022-10-16T02:52:20;1.20;;;0.60;;
487;SDS011;16586;48.976;9.584;2022-10-16T02:54:47;1.20;;;0.60;;
487;SDS011;16586;48.976;9.584;2022-10-16T02:57:14;1.00;;;0.60;;
487;SDS011;16586;48.976;9.584;2022-10-16T02:59:42;1.03;;;0.70;;
487;SDS011;16586;48.976;9.584;2022-10-16T03:02:09;1.92;;;0.80;;
487;SDS011;16586;48.976;9.584;2022-10-16T03:04:37;1.15;;;0.70;;
487;SDS011;16586;48.976;9.584;2022-10-16T03:07:04;1.70;;;1.00;;
487;SDS011;16586;48.976;9.584;2022-10-16T03:09:31;1.10;;;0.60;;
487;SDS011;16586;48.976;9.584;2022-10-16T03:11:58;1.00;;;0.70;;
487;SDS011;16586;48.976;9.584;2022-10-16T03:14:25;1.42;;;0.60;;
487;SDS011;16586;48.976;9.584;2022-10-16T03:16:53;0.90;;;0.50;;
487;SDS011;16586;48.976;9.584;2022-10-16T03:19:20;0.90;;;0.50;;
487;SDS011;16586;48.976;9.584;2022-10-16T03:21:46;1.00;;;0.60;;
487;SDS011;16586;48.976;9.584;2022-10-16T03:24:13;1.00;;;0.60;;
487;SDS011;16586;48.976;9.584;2022-10-16T03:26:40;2.08;;;0.65;;
487;SDS011;16586;48.976;9.584;2022-10-16T03:29:07;1.00;;;0.60;;
487;SDS011;16586;48.976;9.584;2022-10-16T03:31:34;0.90;;;0.63;;
487;SDS011;16586;48.976;9.584;2022-10-16T03:34:02;1.10;;;0.70;;
487;SDS011;16586;48.976;9.584;2022-10-16T03:36:28;1.00;;;0.60;;
487;SDS011;16586;48.976;9.584;2022-10-16T03:38:55;1.00;;;0.63;;
487;SDS011;16586;48.976;9.584;2022-10-16T03:41:22;0.95;;;0.50;;
487;SDS011;16586;48.976;9.584;2022-10-16T03:43:49;0.90;;;0.60;;
487;SDS011;16586;48.976;9.584;2022-10-16T03:46:16;1.00;;;0.68;;
487;SDS011;16586;48.976;9.584;2022-10-16T03:48:43;1.00;;;0.60;;
487;SDS011;16586;48.976;9.584;2022-10-16T03:51:11;1.00;;;0.60;;
487;SDS011;16586;48.976;9.584;2022-10-16T03:53:37;1.75;;;0.60;;
487;SDS011;16586;48.976;9.584;2022-10-16T03:56:04;2.00;;;0.60;;
487;SDS011;16586;48.976;9.584;2022-10-16T03:58:32;0.98;;;0.60;;
487;SDS011;16586;48.976;9.584;2022-10-16T04:00:58;1.20;;;0.60;;
487;SDS011;16586;48.976;9.584;2022-10-16T04:03:25;1.17;;;0.60;;
487;SDS011;16586;48.976;9.584;2022-10-16T04:05:52;1.10;;;0.55;;
487;SDS011;16586;48.976;9.584;2022-10-16T04:08:20;1.00;;;0.60;;
487;SDS011;16586;48.976;9.584;2022-10-16T04:10:47;1.02;;;0.70;;
487;SDS011;16586;48.976;9.584;2022-10-16T04:13:14;1.00;;;0.60;;
487;SDS011;16586;48.976;9.584;2022-10-16T04:15:41;0.93;;;0.50;;
487;SDS011;16586;48.976;9.584;2022-10-16T04:18:08;1.00;;;0.60;;
487;SDS011;16586;48.976;9.584;2022-10-16T04:20:35;1.30;;;0.60;;
487;SDS011;16586;48.976;9.584;2022-10-16T04:23:02;2.80;;;0.70;;
487;SDS011;16586;48.976;9.584;2022-10-16T04:25:30;1.00;;;0.60;;
487;SDS011;16586;48.976;9.584;2022-10-16T04:27:57;1.40;;;0.60;;
487;SDS011;16586;48.976;9.584;2022-10-16T04:30:24;1.00;;;0.60;;
487;SDS011;16586;48.976;9.584;2022-10-16T04:32:51;1.50;;;0.60;;
487;SDS011;16586;48.976;9.584;2022-10-16T04:35:19;1.40;;;0.60;;
487;SDS011;16586;48.976;9.584;2022-10-16T04:37:47;1.30;;;0.70;;
487;SDS011;16586;48.976;9.584;2022-10-16T04:40:14;1.50;;;0.60;;
487;SDS011;16586;48.976;9.584;2022-10-16T04:42:42;1.00;;;0.70;;
487;SDS011;16586;48.976;9.584;2022-10-16T04:45:09;1.00;;;0.60;;
487;SDS011;16586;48.976;9.584;2022-10-16T04:47:36;1.10;;;0.65;;
487;SDS011;16586;48.976;9.584;2022-10-16T04:50:03;1.30;;;0.70;;
487;SDS011;16586;48.976;9.584;2022-10-16T04:52:31;1.00;;;0.70;;
487;SDS011;16586;48.976;9.584;2022-10-16T04:54:58;0.95;;;0.68;;
487;SDS011;16586;48.976;9.584;2022-10-16T04:57:27;1.00;;;0.70;;
487;SDS011;16586;48.976;9.584;2022-10-16T04:59:55;1.20;;;0.70;;
487;SDS011;16586;48.976;9.584;2022-10-16T05:02:22;1.00;;;0.70;;
487;SDS011;16586;48.976;9.584;2022-10-16T05:04:49;1.15;;;0.80;;
487;SDS011;16586;48.976;9.584;2022-10-16T05:07:15;1.20;;;0.70;;
487;SDS011;16586;48.976;9.584;2022-10-16T05:09:42;1.10;;;0.77;;
487;SDS011;16586;48.976;9.584;2022-10-16T05:12:09;1.30;;;1.00;;
487;SDS011;16586;48.976;9.584;2022-10-16T05:14:36;1.15;;;0.90;;
487;SDS011;16586;48.976;9.584;2022-10-16T05:17:04;1.43;;;1.10;;
487;SDS011;16586;48.976;9.584;2022-10-16T05:19:31;1.58;;;1.00;;
487;SDS011;16586;48.976;9.584;2022-10-16T05:21:57;1.25;;;0.80;;
487;SDS011;16586;48.976;9.584;2022-10-16T05:24:24;1.60;;;0.90;;
487;SDS011;16586;48.976;9.584;2022-10-16T05:26:51;1.00;;;0.70;;
487;SDS011;16586;48.976;9.584;2022-10-16T05:29:19;1.50;;;0.80;;
487;SDS011;16586;48.976;9.584;2022-10-16T05:31:45;1.20;;;0.80;;
487;SDS011;16586;48.976;9.584;2022-10-16T05:34:14;1.20;;;0.80;;
487;SDS011;16586;48.976;9.584;2022-10-16T05:36:40;1.10;;;0.80;;
487;SDS011;16586;48.976;9.584;2022-10-16T05:39:07;1.30;;;1.00;;
487;SDS011;16586;48.976;9.584;2022-10-16T05:41:34;1.48;;;0.80;;
487;SDS011;16586;48.976;9.584;2022-10-16T05:44:03;1.60;;;1.13;;
487;SDS011;16586;48.976;9.584;2022-10-16T05:46:31;1.25;;;1.00;;
487;SDS011;16586;48.976;9.584;2022-10-16T05:48:58;1.48;;;1.20;;
487;SDS011;16586;48.976;9.584;2022-10-16T05:51:26;1.50;;;1.10;;
487;SDS011;16586;48.976;9.584;2022-10-16T05:53:54;1.10;;;0.77;;
487;SDS011;16586;48.976;9.584;2022-10-16T05:56:20;1.08;;;0.80;;
487;SDS011;16586;48.976;9.584;2022-10-16T05:58:47;1.30;;;0.90;;
487;SDS011;16586;48.976;9.584;2022-10-16T06:01:14;1.65;;;1.00;;
487;SDS011;16586;48.976;9.584;2022-10-16T06:03:42;1.40;;;1.00;;
487;SDS011;16586;48.976;9.584;2022-10-16T06:06:10;1.30;;;0.95;;
487;SDS011;16586;48.976;9.584;2022-10-16T06:08:39;1.23;;;0.88;;
487;SDS011;16586;48.976;9.584;2022-10-16T06:11:07;1.20;;;0.80;;
487;SDS011;16586;48.976;9.584;2022-10-16T06:13:35;1.10;;;0.88;;
487;SDS011;16586;48.976;9.584;2022-10-16T06:16:02;1.30;;;0.80;;
487;SDS011;16586;48.976;9.584;2022-10-16T06:18:30;1.40;;;0.70;;
487;SDS011;16586;48.976;9.584;2022-10-16T06:20:57;1.00;;;0.70;;
487;SDS011;16586;48.976;9.584;2022-10-16T06:23:24;1.10;;;0.80;;
487;SDS011;16586;48.976;9.584;2022-10-16T06:25:53;1.20;;;0.90;;
487;SDS011;16586;48.976;9.584;2022-10-16T06:28:19;1.20;;;0.85;;
487;SDS011;16586;48.976;9.584;2022-10-16T06:30:46;1.88;;;1.40;;
487;SDS011;16586;48.976;9.584;2022-10-16T06:33:13;1.60;;;1.20;;
487;SDS011;16586;48.976;9.584;2022-10-16T06:35:40;1.20;;;1.00;;
487;SDS011;16586;48.976;9.584;2022-10-16T06:38:06;1.50;;;1.30;;
487;SDS011;16586;48.976;9.584;2022-10-16T06:40:33;1.25;;;0.95;;
487;SDS011;16586;48.976;9.584;2022-10-16T06:43:01;1.30;;;1.13;;
487;SDS011;16586;48.976;9.584;2022-10-16T06:45:28;1.50;;;1.10;;
487;SDS011;16586;48.976;9.584;2022-10-16T06:47:55;1.70;;;1.20;;
487;SDS011;16586;48.976;9.584;2022-10-16T06:50:22;1.30;;;1.20;;
487;SDS011;16586;48.976;9.584;2022-10-16T06:52:48;1.30;;;1.00;;
487;SDS011;16586;48.976;9.584;2022-10-16T06:55:15;1.50;;;1.25;;
487;SDS011;16586;48.976;9.584;2022-10-16T06:57:43;1.33;;;0.98;;
487;SDS011;16586;48.976;9.584;2022-10-16T07:00:11;1.60;;;1.10;;
487;SDS011;16586;48.976;9.584;2022-10-16T07:02:38;2.00;;;1.30;;
487;SDS011;16586;48.976;9.584;2022-10-16T07:05:05;1.55;;;1.33;;
487;SDS011;16586;48.976;9.584;2022-10-16T07:07:32;1.30;;;0.98;;
487;SDS011;16586;48.976;9.584;2022-10-16T07:09:59;2.15;;;1.05;;
487;SDS011;16586;48.976;9.584;2022-10-16T07:12:26;1.40;;;1.00;;
487;SDS011;16586;48.976;9.584;2022-10-16T07:14:53;1.33;;;1.10;;
487;SDS011;16586;48.976;9.584;2022-10-16T07:17:22;1.90;;;1.50;;
487;SDS011;16586;48.976;9.584;2022-10-16T07:19:48;1.27;;;1.00;;
487;SDS011;16586;48.976;9.584;2022-10-16T07:22:18;1.35;;;1.05;;
487;SDS011;16586;48.976;9.584;2022-10-16T07:24:44;1.13;;;0.90;;
487;SDS011;16586;48.976;9.584;2022-10-16T07:27:11;1.15;;;0.80;;
487;SDS011;16586;48.976;9.584;2022-10-16T07:29:38;1.20;;;0.90;;
487;SDS011;16586;48.976;9.584;2022-10-16T07:32:05;1.00;;;0.73;;
487;SDS011;16586;48.976;9.584;2022-10-16T07:34:33;1.33;;;1.30;;
487;SDS011;16586;48.976;9.584;2022-10-16T07:37:00;1.40;;;1.15;;
487;SDS011;16586;48.976;9.584;2022-10-16T07:39:26;2.00;;;1.30;;
487;SDS011;16586;48.976;9.584;2022-10-16T07:41:53;1.55;;;1.50;;
487;SDS011;16586;48.976;9.584;2022-10-16T07:44:20;2.40;;;2.30;;
487;SDS011;16586;48.976;9.584;2022-10-16T07:46:47;2.20;;;1.85;;
487;SDS011;16586;48.976;9.584;2022-10-16T07:49:14;2.30;;;1.90;;
487;SDS011;16586;48.976;9.584;2022-10-16T07:51:42;2.30;;;2.05;;
487;SDS011;16586;48.976;9.584;2022-10-16T07:54:09;1.80;;;1.70;;
487;SDS011;16586;48.976;9.584;2022-10-16T07:56:36;3.47;;;3.28;;
487;SDS011;16586;48.976;9.584;2022-10-16T07:59:02;2.97;;;2.78;;
487;SDS011;16586;48.976;9.584;2022-10-16T08:01:29;2.45;;;2.25;;
487;SDS011;16586;48.976;9.584;2022-10-16T08:03:56;1.40;;;1.40;;
487;SDS011;16586;48.976;9.584;2022-10-16T08:06:23;1.60;;;1.50;;
487;SDS011;16586;48.976;9.584;2022-10-16T08:08:51;1.30;;;1.07;;
487;SDS011;16586;48.976;9.584;2022-10-16T08:11:18;1.30;;;1.17;;
487;SDS011;16586;48.976;9.584;2022-10-16T08:13:45;1.60;;;1.10;;
487;SDS011;16586;48.976;9.584;2022-10-16T08:16:11;1.30;;;1.13;;
487;SDS011;16586;48.976;9.584;2022-10-16T08:18:39;1.70;;;1.20;;
487;SDS011;16586;48.976;9.584;2022-10-16T08:21:07;1.50;;;1.30;;
487;SDS011;16586;48.976;9.584;2022-10-16T08:23:39;1.40;;;1.30;;
487;SDS011;16586;48.976;9.584;2022-10-16T08:26:07;1.30;;;1.13;;
487;SDS011;16586;48.976;9.584;2022-10-16T08:28:35;1.50;;;1.40;;
487;SDS011;16586;48.976;9.584;2022-10-16T08:31:05;1.50;;;1.30;;
487;SDS011;16586;48.976;9.584;2022-10-16T08:33:33;1.40;;;1.10;;
487;SDS011;16586;48.976;9.584;2022-10-16T08:36:01;1.70;;;1.50;;
487;SDS011;16586;48.976;9.584;2022-10-16T08:38:28;1.30;;;1.30;;
487;SDS011;16586;48.976;9.584;2022-10-16T08:40:55;1.33;;;1.30;;
487;SDS011;16586;48.976;9.584;2022-10-16T08:44:07;1.50;;;1.30;;
487;SDS011;16586;48.976;9.584;2022-10-16T08:47:02;1.60;;;1.50;;
487;SDS011;16586;48.976;9.584;2022-10-16T08:49:39;1.10;;;1.00;;
487;SDS011;16586;48.976;9.584;2022-10-16T08:52:10;4.47;;;1.52;;
487;SDS011;16586;48.976;9.584;2022-10-16T08:54:39;1.52;;;1.40;;
487;SDS011;16586;48.976;9.584;2022-10-16T08:57:09;1.40;;;1.40;;
487;SDS011;16586;48.976;9.584;2022-10-16T08:59:41;1.48;;;1.35;;
487;SDS011;16586;48.976;9.584;2022-10-16T09:02:16;1.30;;;1.20;;
487;SDS011;16586;48.976;9.584;2022-10-16T09:04:57;1.08;;;0.80;;
487;SDS011;16586;48.976;9.584;2022-10-16T09:07:45;1.00;;;0.70;;
487;SDS011;16586;48.976;9.584;2022-10-16T09:10:23;1.00;;;0.70;;
487;SDS011;16586;48.976;9.584;2022-10-16T09:13:01;1.10;;;0.70;;
487;SDS011;16586;48.976;9.584;2022-10-16T09:15:39;1.60;;;0.70;;
487;SDS011;16586;48.976;9.584;2022-10-16T09:18:15;0.93;;;0.60;;
487;SDS011;16586;48.976;9.584;2022-10-16T09:20:51;1.30;;;0.80;;
487;SDS011;16586;48.976;9.584;2022-10-16T09:23:25;1.15;;;0.70;;
487;SDS011;16586;48.976;9.584;2022-10-16T09:25:53;0.93;;;0.60;;
487;SDS011;16586;48.976;9.584;2022-10-16T09:28:22;1.00;;;0.60;;
487;SDS011;16586;48.976;9.584;2022-10-16T09:30:50;1.35;;;0.70;;
487;SDS011;16586;48.976;9.584;2022-10-16T09:33:17;1.00;;;0.70;;
487;SDS011;16586;48.976;9.584;2022-10-16T09:35:48;1.10;;;0.60;;
487;SDS011;16586;48.976;9.584;2022-10-16T09:38:24;0.90;;;0.50;;
487;SDS011;16586;48.976;9.584;2022-10-16T09:40:53;1.10;;;0.80;;
487;SDS011;16586;48.976;9.584;2022-10-16T09:43:22;1.25;;;0.85;;
487;SDS011;16586;48.976;9.584;2022-10-16T09:45:54;1.40;;;1.00;;
487;SDS011;16586;48.976;9.584;2022-10-16T09:48:22;1.50;;;1.20;;
487;SDS011;16586;48.976;9.584;2022-10-16T09:50:57;1.90;;;1.10;;
487;SDS011;16586;48.976;9.584;2022-10-16T09:53:26;1.40;;;0.82;;
487;SDS011;16586;48.976;9.584;2022-10-16T09:56:04;2.50;;;1.10;;
487;SDS011;16586;48.976;9.584;2022-10-16T09:58:41;1.30;;;0.80;;
487;SDS011;16586;48.976;9.584;2022-10-16T10:01:11;1.10;;;0.70;;
487;SDS011;16586;48.976;9.584;2022-10-16T10:03:40;1.17;;;0.90;;
487;SDS011;16586;48.976;9.584;2022-10-16T10:06:16;1.70;;;0.70;;
487;SDS011;16586;48.976;9.584;2022-10-16T10:08:57;1.20;;;0.80;;
487;SDS011;16586;48.976;9.584;2022-10-16T10:11:38;1.10;;;0.70;;
487;SDS011;16586;48.976;9.584;2022-10-16T10:14:10;2.10;;;0.80;;
487;SDS011;16586;48.976;9.584;2022-10-16T10:16:47;1.50;;;1.00;;
487;SDS011;16586;48.976;9.584;2022-10-16T10:19:19;1.40;;;0.50;;
487;SDS011;16586;48.976;9.584;2022-10-16T10:21:48;1.13;;;0.50;;
487;SDS011;16586;48.976;9.584;2022-10-16T10:24:16;1.30;;;0.70;;
487;SDS011;16586;48.976;9.584;2022-10-16T10:26:46;1.30;;;0.70;;
487;SDS011;16586;48.976;9.584;2022-10-16T10:29:19;5.00;;;0.70;;
487;SDS011;16586;48.976;9.584;2022-10-16T10:31:58;1.55;;;0.60;;
487;SDS011;16586;48.976;9.584;2022-10-16T10:34:39;2.30;;;0.70;;
487;SDS011;16586;48.976;9.584;2022-10-16T10:37:22;1.30;;;0.50;;
487;SDS011;16586;48.976;9.584;2022-10-16T10:40:00;2.10;;;0.50;;
487;SDS011;16586;48.976;9.584;2022-10-16T10:42:34;1.05;;;0.50;;
487;SDS011;16586;48.976;9.584;2022-10-16T10:45:16;1.70;;;0.50;;
487;SDS011;16586;48.976;9.584;2022-10-16T10:47:52;1.20;;;0.40;;
487;SDS011;16586;48.976;9.584;2022-10-16T10:50:33;1.48;;;0.40;;
487;SDS011;16586;48.976;9.584;2022-10-16T10:53:10;1.40;;;0.50;;
487;SDS011;16586;48.976;9.584;2022-10-16T10:55:45;0.88;;;0.40;;
487;SDS011;16586;48.976;9.584;2022-10-16T11:01:15;0.90;;;0.40;;
487;SDS011;16586;48.976;9.584;2022-10-16T11:03:55;0.90;;;0.40;;
487;SDS011;16586;48.976;9.584;2022-10-16T11:06:32;1.50;;;0.50;;
487;SDS011;16586;48.976;9.584;2022-10-16T11:09:07;1.10;;;0.60;;
487;SDS011;16586;48.976;9.584;2022-10-16T11:11:40;2.70;;;0.60;;
487;SDS011;16586;48.976;9.584;2022-10-16T11:14:13;1.20;;;0.70;;
487;SDS011;16586;48.976;9.584;2022-10-16T11:16:43;1.60;;;0.60;;
487;SDS011;16586;48.976;9.584;2022-10-16T11:19:21;1.00;;;0.60;;
487;SDS011;16586;48.976;9.584;2022-10-16T11:21:59;1.50;;;0.50;;
487;SDS011;16586;48.976;9.584;2022-10-16T11:24:32;2.00;;;0.80;;
487;SDS011;16586;48.976;9.584;2022-10-16T11:27:07;1.40;;;0.90;;
487;SDS011;16586;48.976;9.584;2022-10-16T11:29:40;1.50;;;0.60;;
487;SDS011;16586;48.976;9.584;2022-10-16T11:32:15;1.20;;;0.60;;
487;SDS011;16586;48.976;9.584;2022-10-16T11:34:51;1.60;;;0.50;;
487;SDS011;16586;48.976;9.584;2022-10-16T11:37:22;2.10;;;0.50;;
487;SDS011;16586;48.976;9.584;2022-10-16T11:39:52;0.90;;;0.50;;
487;SDS011;16586;48.976;9.584;2022-10-16T11:42:26;1.20;;;0.70;;
487;SDS011;16586;48.976;9.584;2022-10-16T11:45:00;1.80;;;0.70;;
487;SDS011;16586;48.976;9.584;2022-10-16T11:47:34;2.00;;;0.63;;
487;SDS011;16586;48.976;9.584;2022-10-16T11:50:22;0.90;;;0.40;;
487;SDS011;16586;48.976;9.584;2022-10-16T11:52:53;6.80;;;0.90;;
487;SDS011;16586;48.976;9.584;2022-10-16T11:55:27;0.90;;;0.50;;
487;SDS011;16586;48.976;9.584;2022-10-16T11:57:57;1.27;;;0.60;;
487;SDS011;16586;48.976;9.584;2022-10-16T12:00:28;1.10;;;0.60;;
487;SDS011;16586;48.976;9.584;2022-10-16T12:03:01;1.00;;;0.70;;
487;SDS011;16586;48.976;9.584;2022-10-16T12:05:40;1.20;;;0.40;;
487;SDS011;16586;48.976;9.584;2022-10-16T12:08:18;2.00;;;0.40;;
487;SDS011;16586;48.976;9.584;2022-10-16T12:10:46;1.33;;;0.60;;
487;SDS011;16586;48.976;9.584;2022-10-16T12:13:30;1.20;;;0.50;;
487;SDS011;16586;48.976;9.584;2022-10-16T12:16:05;0.90;;;0.50;;
487;SDS011;16586;48.976;9.584;2022-10-16T12:18:45;2.00;;;0.60;;
487;SDS011;16586;48.976;9.584;2022-10-16T12:21:15;1.30;;;0.60;;
487;SDS011;16586;48.976;9.584;2022-10-16T12:23:46;1.10;;;0.50;;
487;SDS011;16586;48.976;9.584;2022-10-16T12:26:15;2.10;;;0.60;;
487;SDS011;16586;48.976;9.584;2022-10-16T12:28:51;0.80;;;0.50;;
487;SDS011;16586;48.976;9.584;2022-10-16T12:31:17;1.00;;;0.50;;
487;SDS011;16586;48.976;9.584;2022-10-16T12:33:52;2.00;;;0.70;;
487;SDS011;16586;48.976;9.584;2022-10-16T12:36:27;0.90;;;0.40;;
487;SDS011;16586;48.976;9.584;2022-10-16T12:38:57;1.60;;;0.50;;
487;SDS011;16586;48.976;9.584;2022-10-16T12:41:25;1.02;;;0.60;;
487;SDS011;16586;48.976;9.584;2022-10-16T12:43:53;1.10;;;0.60;;
487;SDS011;16586;48.976;9.584;2022-10-16T12:46:22;1.80;;;0.60;;
487;SDS011;16586;48.976;9.584;2022-10-16T12:49:04;1.38;;;0.60;;
487;SDS011;16586;48.976;9.584;2022-10-16T12:51:35;2.80;;;0.50;;
487;SDS011;16586;48.976;9.584;2022-10-16T12:54:03;1.70;;;0.70;;
487;SDS011;16586;48.976;9.584;2022-10-16T12:56:40;1.33;;;0.60;;
487;SDS011;16586;48.976;9.584;2022-10-16T12:59:15;1.00;;;0.50;;
487;SDS011;16586;48.976;9.584;2022-10-16T13:01:55;0.80;;;0.40;;
487;SDS011;16586;48.976;9.584;2022-10-16T13:07:40;2.80;;;0.60;;
487;SDS011;16586;48.976;9.584;2022-10-16T13:10:18;0.80;;;0.40;;
487;SDS011;16586;48.976;9.584;2022-10-16T13:13:12;2.00;;;0.57;;
487;SDS011;16586;48.976;9.584;2022-10-16T13:16:03;1.00;;;0.60;;
487;SDS011;16586;48.976;9.584;2022-10-16T13:18:45;1.30;;;0.50;;
487;SDS011;16586;48.976;9.584;2022-10-16T13:21:33;1.00;;;0.50;;
487;SDS011;16586;48.976;9.584;2022-10-16T13:24:09;1.50;;;0.77;;
487;SDS011;16586;48.976;9.584;2022-10-16T13:26:45;1.92;;;0.52;;
487;SDS011;16586;48.976;9.584;2022-10-16T13:29:21;1.00;;;0.40;;
487;SDS011;16586;48.976;9.584;2022-10-16T13:31:49;2.20;;;0.90;;
487;SDS011;16586;48.976;9.584;2022-10-16T13:34:16;1.40;;;0.40;;
487;SDS011;16586;48.976;9.584;2022-10-16T13:36:47;1.60;;;0.50;;
487;SDS011;16586;48.976;9.584;2022-10-16T13:39:20;2.03;;;0.70;;
487;SDS011;16586;48.976;9.584;2022-10-16T13:41:57;1.00;;;0.50;;
487;SDS011;16586;48.976;9.584;2022-10-16T13:44:27;0.80;;;0.40;;
487;SDS011;16586;48.976;9.584;2022-10-16T13:46:59;4.30;;;0.70;;
487;SDS011;16586;48.976;9.584;2022-10-16T13:49:29;1.00;;;0.50;;
487;SDS011;16586;48.976;9.584;2022-10-16T13:51:57;1.40;;;0.50;;
487;SDS011;16586;48.976;9.584;2022-10-16T13:54:26;3.58;;;0.68;;
487;SDS011;16586;48.976;9.584;2022-10-16T13:56:54;3.25;;;0.70;;
487;SDS011;16586;48.976;9.584;2022-10-16T13:59:25;1.90;;;0.57;;
487;SDS011;16586;48.976;9.584;2022-10-16T14:01:53;1.50;;;0.60;;
487;SDS011;16586;48.976;9.584;2022-10-16T14:04:23;1.80;;;0.50;;
487;SDS011;16586;48.976;9.584;2022-10-16T14:06:51;1.00;;;0.60;;
487;SDS011;16586;48.976;9.584;2022-10-16T14:09:22;2.00;;;0.55;;
487;SDS011;16586;48.976;9.584;2022-10-16T14:11:53;1.60;;;0.50;;
487;SDS011;16586;48.976;9.584;2022-10-16T14:14:22;1.80;;;0.50;;
487;SDS011;16586;48.976;9.584;2022-10-16T14:16:50;1.40;;;0.60;;
487;SDS011;16586;48.976;9.584;2022-10-16T14:19:18;1.00;;;0.55;;
487;SDS011;16586;48.976;9.584;2022-10-16T14:21:48;0.90;;;0.50;;
487;SDS011;16586;48.976;9.584;2022-10-16T14:24:22;1.38;;;0.50;;
487;SDS011;16586;48.976;9.584;2022-10-16T14:26:54;0.90;;;0.40;;
487;SDS011;16586;48.976;9.584;2022-10-16T14:29:21;1.50;;;0.50;;
487;SDS011;16586;48.976;9.584;2022-10-16T14:31:56;1.10;;;0.60;;
487;SDS011;16586;48.976;9.584;2022-10-16T14:34:28;1.63;;;0.70;;
487;SDS011;16586;48.976;9.584;2022-10-16T14:36:58;1.20;;;0.70;;
487;SDS011;16586;48.976;9.584;2022-10-16T14:39:31;1.80;;;0.60;;
487;SDS011;16586;48.976;9.584;2022-10-16T14:42:00;1.20;;;0.60;;
487;SDS011;16586;48.976;9.584;2022-10-16T14:44:28;1.00;;;0.55;;
487;SDS011;16586;48.976;9.584;2022-10-16T14:46:58;1.08;;;0.68;;
487;SDS011;16586;48.976;9.584;2022-10-16T14:49:32;1.75;;;0.50;;
487;SDS011;16586;48.976;9.584;2022-10-16T14:51:59;1.10;;;0.50;;
487;SDS011;16586;48.976;9.584;2022-10-16T14:54:27;0.90;;;0.40;;
487;SDS011;16586;48.976;9.584;2022-10-16T14:56:55;1.00;;;0.50;;
487;SDS011;16586;48.976;9.584;2022-10-16T14:59:25;2.17;;;0.80;;
487;SDS011;16586;48.976;9.584;2022-10-16T15:01:56;3.00;;;0.70;;
487;SDS011;16586;48.976;9.584;2022-10-16T15:04:22;1.70;;;0.70;;
487;SDS011;16586;48.976;9.584;2022-10-16T15:06:49;2.40;;;0.60;;
487;SDS011;16586;48.976;9.584;2022-10-16T15:09:16;1.00;;;0.50;;
487;SDS011;16586;48.976;9.584;2022-10-16T15:11:43;1.10;;;0.60;;
487;SDS011;16586;48.976;9.584;2022-10-16T15:14:12;1.27;;;0.60;;
487;SDS011;16586;48.976;9.584;2022-10-16T15:16:41;2.60;;;0.60;;
487;SDS011;16586;48.976;9.584;2022-10-16T15:19:08;2.20;;;0.68;;
487;SDS011;16586;48.976;9.584;2022-10-16T15:21:35;1.00;;;0.60;;
487;SDS011;16586;48.976;9.584;2022-10-16T15:24:02;1.80;;;0.70;;
487;SDS011;16586;48.976;9.584;2022-10-16T15:26:29;1.80;;;0.55;;
487;SDS011;16586;48.976;9.584;2022-10-16T15:28:56;2.60;;;0.70;;
487;SDS011;16586;48.976;9.584;2022-10-16T15:31:23;2.50;;;0.70;;
487;SDS011;16586;48.976;9.584;2022-10-16T15:33:54;2.55;;;0.70;;
487;SDS011;16586;48.976;9.584;2022-10-16T15:36:27;1.80;;;0.70;;
487;SDS011;16586;48.976;9.584;2022-10-16T15:38:54;1.98;;;0.70;;
487;SDS011;16586;48.976;9.584;2022-10-16T15:41:21;0.90;;;0.50;;